Chomedey, Canada
Current Conditions -  °F | °C
As of 1:00 AM on Tuesday 27 Jan 2015 (Local Time) from CYUL Reporting Station
Broken Clouds Broken Clouds  
Wind Chill: -19°   Ceiling: 20000
Heat Index:   Visibility: 15mi
Dew Point: -6°   Wind: 23mph
Humidity: 66%   Direction: 30°NNE
Pressure: 30.12"   Gusts: 30mph
Location:  45.55°N, 73.73°W
Report Text: CYUL 270600Z 03020G26KT 15SM BKN200 M16/M21 A3012 RMK CS7 PRESFR SLP202
Loading
Personal Weather Stations






























Interactive Weather Map New forecast layout! Learn more

10-Day Weather Forecast

Advertisements
Track Severe Weather on mobile